Terminal Aerodrome Forecast
Issued by NWS Omaha/Valley, NE

Home | Current Version | Previous Version | Text Only | Print | Product List | Glossary On
Versions: 1 2 3 4 5 6 7 8 9 10 11 12 13 14 15 16 17 18 19 20 21 22 23 24 25
000
FTUS43 KOAX 291120
TAFLNK
TAF
KLNK 291120Z 2912/3012 14007KT P6SM BKN110 PROB30 2922/3002 5SM
      TSRA BKN040CB
     FM300200 35015G22KT P6SM OVC050
     FM300600 35016G22KT P6SM OVC100
     FM301000 34015G22KT P6SM OVC100=

USA.gov is the U.S. government's official web portal to all federal, state and local government web resources and services.